Eglin, Florida
Current Conditions -  °F | °C
As of 12:56 AM on Friday 31 Oct 2014 (Local Time) from KVPS Reporting Station
Clear Clear  
Wind Chill: 53°   Ceiling: Unl
Heat Index: 53°   Visibility: 10mi
Dew Point: 42°   Wind: 9mph
Humidity: 65%   Direction: 340°NNW
Pressure: 30"   Gusts: NA
Location:  30.5697°N, 86.6042°W
Report Text: KVPS 310556Z 34008KT 10SM CLR 12/05 A3000 RMK AO2A SLP165 T01180054 10163 20112 402320112 58002 $
Loading
Personal Weather Stations






























Interactive Weather Map
Tropical Storm Tracking
New forecast layout! Learn more

10-Day Weather Forecast

Advertisements
Track Severe Weather on mobile